Home   Weather   Germany   Kamen   Past weeks
Flag for Germany

Past Weather in Kamen, North Rhine-Westphalia, Germany — Yesterday and Last 2 Weeks

Currently: 57 °F. Clear. (Weather station: Dortmund / Wickede, Germany). See more current weather

Past Weather in Kamen — Graph

°F

Kamen Temperature Yesterday

Maximum temperature yesterday: 79 °F (at 3:50 pm)
Minimum temperature yesterday: 54 °F (at 4:20 am)
Average temperature yesterday: 66 °F

High & Low Weather Summary for the Past Weeks

 TemperatureHumidityPressure
High93 °F (Aug 4, 11:50 am)100% (Aug 1, 2:50 am)30.36 "Hg (Aug 1, 2:50 am)
Low46 °F (Aug 6, 5:50 am)26% (Aug 4, 1:20 pm)29.77 "Hg (Jul 25, 9:20 am)
Average68 °F62%30.06 "Hg
* Reported Jul 25 2:50 am — Aug 9 2:50 am, Kamen. Weather by CustomWeather, © 2022

Note: Actual official high and low records may vary slightly from our data, if they occured in-between our weather recording intervals... More about our weather records

Kamen Weather History for the Previous 24 Hours

Scroll right to see more
 ConditionsComfort  
Time TempWeatherWind HumidityBarometerVisibility
2:50 am
Tue, Aug 9
59 °FClear.2 mph77%30.30 "HgN/A
1:20 am61 °FClear.5 mph72%30.30 "HgN/A
12:50 am63 °FClear.3 mph68%30.30 "HgN/A
12:20 am63 °FClear.5 mph68%30.30 "HgN/A
11:20 pm
Mon, Aug 8
64 °FClear.3 mph64%30.30 "HgN/A
10:50 pm66 °FClear.3 mph60%30.30 "Hg10 mi
10:20 pm66 °FClear.3 mph56%30.30 "Hg10 mi
9:50 pm68 °FPassing clouds.3 mph53%30.27 "HgN/A
9:20 pm70 °FPassing clouds.5 mph50%30.27 "HgN/A
8:50 pm72 °FPassing clouds.6 mph47%30.24 "HgN/A
8:20 pm73 °FPassing clouds.7 mph44%30.24 "HgN/A
7:50 pm75 °FPassing clouds.7 mph41%30.24 "HgN/A
7:20 pm75 °FPassing clouds.8 mph41%30.24 "HgN/A
6:50 pm77 °FPassing clouds.7 mph36%30.24 "HgN/A
6:20 pm77 °FSunny.7 mph39%30.24 "Hg10 mi
5:50 pm79 °FSunny.5 mph37%30.24 "Hg10 mi
5:20 pm79 °FPassing clouds.6 mph37%30.24 "HgN/A
4:50 pm77 °FSunny.5 mph36%30.24 "Hg10 mi
4:20 pm79 °FSunny.5 mph39%30.24 "Hg10 mi
3:50 pm79 °FSunny.6 mph34%30.24 "Hg10 mi
1:50 pm75 °FPassing clouds.6 mph39%30.27 "HgN/A
1:20 pm75 °FSunny.5 mph41%30.27 "Hg10 mi
12:20 pm73 °FSunny.6 mph44%30.27 "Hg10 mi
11:50 am72 °FPassing clouds.5 mph50%30.27 "HgN/A
11:20 am70 °FSunny.3 mph53%30.27 "Hg10 mi
10:50 am68 °FPassing clouds.3 mph56%30.27 "HgN/A
10:20 am68 °FPassing clouds.5 mph56%30.27 "HgN/A
9:50 am64 °FSunny.2 mph60%30.27 "Hg10 mi
8:50 am61 °FSunny.1 mph68%30.27 "Hg10 mi
8:20 am59 °FSunny.No wind72%30.24 "Hg10 mi
7:50 am57 °FSunny.5 mph77%30.24 "Hg10 mi
7:20 am55 °FSunny.2 mph82%30.24 "Hg10 mi
6:50 am54 °FSunny.2 mph82%30.24 "Hg10 mi
6:20 am54 °FSunny.2 mph82%30.24 "Hg10 mi
5:50 am54 °FClear.No wind82%30.24 "Hg10 mi
5:20 am54 °FClear.No wind82%30.24 "Hg10 mi
4:50 am54 °FClear.No wind77%30.21 "HgN/A
4:20 am54 °FClear.2 mph82%30.24 "HgN/A
3:20 am55 °FClear.No wind72%30.24 "HgN/A
Weather by CustomWeather, © 2022

See weather overview